createdAt,value
2022-10-24T00:01:43.739Z,24.20
2022-10-24T00:04:11.825Z,25.40
2022-10-24T00:06:41.859Z,22.50
2022-10-24T00:09:10.443Z,20.90
2022-10-24T00:11:41.833Z,23.00
2022-10-24T00:14:09.831Z,23.50
2022-10-24T00:16:37.795Z,19.50
2022-10-24T00:19:06.133Z,21.10
2022-10-24T00:21:34.724Z,21.80
2022-10-24T00:24:02.770Z,18.80
2022-10-24T00:26:31.237Z,23.80
2022-10-24T00:31:32.380Z,21.70
2022-10-24T00:34:01.375Z,18.50
2022-10-24T00:36:29.879Z,18.30
2022-10-24T00:38:58.163Z,21.00
2022-10-24T00:41:39.003Z,21.90
2022-10-24T00:44:23.865Z,21.00
2022-10-24T00:47:16.163Z,19.70
2022-10-24T00:49:52.364Z,21.50
2022-10-24T00:52:28.459Z,16.30
2022-10-24T00:54:59.642Z,19.20
2022-10-24T00:57:49.688Z,18.90
2022-10-24T01:00:26.502Z,18.30
2022-10-24T01:02:54.866Z,19.00
2022-10-24T01:05:26.855Z,21.40
2022-10-24T01:07:55.204Z,18.10
2022-10-24T01:10:51.729Z,18.60
2022-10-24T01:13:25.691Z,21.70
2022-10-24T01:16:13.342Z,20.00
2022-10-24T01:18:47.132Z,19.10
2022-10-24T01:21:31.586Z,18.00
2022-10-24T01:24:05.582Z,17.10
2022-10-24T01:27:12.139Z,19.30
2022-10-24T01:30:06.577Z,21.90
2022-10-24T01:32:43.844Z,16.50
2022-10-24T01:35:20.806Z,18.90
2022-10-24T01:38:02.863Z,17.40
2022-10-24T01:40:36.873Z,16.90
2022-10-24T01:43:16.529Z,15.30
2022-10-24T01:45:49.071Z,17.10
2022-10-24T01:48:21.726Z,14.60
2022-10-24T01:50:53.773Z,18.70
2022-10-24T01:53:24.969Z,13.40
2022-10-24T01:55:54.423Z,14.00
2022-10-24T01:58:23.147Z,15.60
2022-10-24T02:00:55.199Z,14.30
2022-10-24T02:03:35.079Z,17.00
2022-10-24T02:06:20.105Z,15.40
2022-10-24T02:08:55.323Z,14.60
2022-10-24T02:11:23.412Z,11.80
2022-10-24T02:13:59.782Z,14.70
2022-10-24T02:16:28.026Z,11.50
2022-10-24T02:18:57.740Z,12.80
2022-10-24T02:21:30.237Z,15.30
2022-10-24T02:24:08.589Z,13.30
2022-10-24T02:27:07.440Z,13.70
2022-10-24T02:29:48.844Z,11.90
2022-10-24T02:32:23.630Z,13.40
2022-10-24T02:34:52.192Z,15.80
2022-10-24T02:37:22.352Z,14.80
2022-10-24T02:39:52.252Z,17.80
2022-10-24T02:42:24.135Z,12.60
2022-10-24T02:44:52.886Z,14.90
2022-10-24T02:47:22.759Z,15.60
2022-10-24T02:49:51.330Z,13.00
2022-10-24T02:52:21.433Z,16.20
2022-10-24T02:54:50.520Z,17.80
2022-10-24T02:57:18.967Z,17.70
2022-10-24T02:59:46.976Z,15.40
2022-10-24T03:02:15.085Z,16.60
2022-10-24T03:04:43.707Z,16.80
2022-10-24T03:07:12.056Z,23.20
2022-10-24T03:09:40.054Z,27.30
2022-10-24T03:12:08.094Z,25.00
2022-10-24T03:14:36.756Z,28.70
2022-10-24T03:17:04.739Z,27.60
2022-10-24T03:19:32.759Z,31.20
2022-10-24T03:22:01.871Z,29.90
2022-10-24T03:24:43.443Z,33.60
2022-10-24T03:27:14.536Z,31.80
2022-10-24T03:29:42.518Z,39.00
2022-10-24T03:32:10.872Z,33.40
2022-10-24T03:34:38.928Z,38.80
2022-10-24T03:37:07.009Z,34.90
2022-10-24T03:39:35.231Z,38.00
2022-10-24T03:42:04.503Z,37.30
2022-10-24T03:44:32.488Z,36.50
2022-10-24T03:47:01.144Z,31.20
2022-10-24T03:49:29.641Z,42.90
2022-10-24T03:51:57.601Z,36.70
2022-10-24T03:54:26.101Z,38.50
2022-10-24T03:56:54.281Z,44.30
2022-10-24T03:59:23.543Z,38.60
2022-10-24T04:01:51.697Z,43.80
2022-10-24T04:04:19.697Z,47.30
2022-10-24T04:06:47.598Z,39.10
2022-10-24T04:09:15.658Z,37.90
2022-10-24T04:11:43.702Z,31.70
2022-10-24T04:14:12.608Z,28.20
2022-10-24T04:16:40.849Z,25.40
2022-10-24T04:19:10.627Z,32.20
2022-10-24T04:21:38.646Z,27.80
2022-10-24T04:24:07.712Z,25.50
2022-10-24T04:26:35.832Z,30.50
2022-10-24T04:29:03.849Z,36.20
2022-10-24T04:31:32.649Z,32.20
2022-10-24T04:34:01.144Z,37.20
2022-10-24T04:36:30.119Z,41.60
2022-10-24T04:41:32.017Z,37.80
2022-10-24T04:44:00.123Z,40.40
2022-10-24T04:46:28.242Z,46.60
2022-10-24T04:48:56.223Z,36.50
2022-10-24T04:51:24.854Z,43.50
2022-10-24T04:53:52.806Z,43.20
2022-10-24T04:56:24.937Z,42.40
2022-10-24T04:58:54.134Z,35.80
2022-10-24T05:01:22.920Z,30.30
2022-10-24T05:03:51.208Z,36.60
2022-10-24T05:06:21.609Z,38.20
2022-10-24T05:08:53.108Z,47.10
2022-10-24T05:11:23.018Z,35.00
2022-10-24T05:13:51.945Z,40.60
2022-10-24T05:16:20.034Z,44.40
2022-10-24T05:18:48.530Z,52.40
2022-10-24T05:21:17.385Z,60.20
2022-10-24T05:23:45.545Z,51.80
2022-10-24T05:26:15.927Z,54.60
2022-10-24T05:28:47.663Z,50.30
2022-10-24T05:31:19.866Z,56.30
2022-10-24T05:33:48.377Z,49.10
2022-10-24T05:36:16.676Z,96.90
2022-10-24T05:38:45.068Z,49.10
2022-10-24T05:41:13.238Z,55.50
2022-10-24T05:43:42.348Z,48.30
2022-10-24T05:46:10.741Z,44.00
2022-10-24T05:48:40.071Z,34.40
2022-10-24T05:51:08.427Z,30.60
2022-10-24T05:53:36.512Z,37.50
2022-10-24T05:56:06.132Z,29.70
2022-10-24T05:58:34.426Z,32.70
2022-10-24T06:01:03.898Z,36.40
2022-10-24T06:03:32.150Z,34.80
2022-10-24T06:06:05.620Z,42.40
2022-10-24T06:08:35.767Z,42.10
2022-10-24T06:11:04.972Z,93.00
2022-10-24T06:13:36.229Z,52.40
2022-10-24T06:16:10.114Z,53.80
2022-10-24T06:18:39.846Z,58.00
2022-10-24T06:21:09.180Z,49.20
2022-10-24T06:23:37.251Z,51.80
2022-10-24T06:26:12.160Z,45.80
2022-10-24T06:28:41.150Z,59.80
2022-10-24T06:31:11.144Z,49.40
2022-10-24T06:33:40.148Z,47.20
2022-10-24T06:36:09.596Z,57.90
2022-10-24T06:38:38.542Z,47.90
2022-10-24T06:41:13.611Z,48.00
2022-10-24T06:43:42.586Z,52.90
2022-10-24T06:46:15.460Z,56.00
2022-10-24T06:48:45.664Z,56.10
2022-10-24T06:51:17.263Z,50.80
2022-10-24T06:53:46.565Z,61.80
2022-10-24T06:56:15.130Z,53.50
2022-10-24T06:58:43.864Z,62.90
2022-10-24T07:01:20.742Z,85.50
2022-10-24T07:03:52.979Z,82.70
2022-10-24T07:06:24.436Z,79.30
2022-10-24T07:08:55.657Z,59.70
2022-10-24T07:11:24.171Z,72.90
2022-10-24T07:13:55.258Z,69.50
2022-10-24T07:16:26.356Z,68.30
2022-10-24T07:18:57.557Z,71.40
2022-10-24T07:21:52.686Z,66.50
2022-10-24T07:24:23.706Z,55.60
2022-10-24T07:26:51.860Z,63.90
2022-10-24T07:29:23.740Z,67.90
2022-10-24T07:31:53.210Z,61.60
2022-10-24T07:34:23.718Z,69.50
2022-10-24T07:36:51.747Z,72.20
2022-10-24T07:39:19.722Z,67.10
2022-10-24T07:41:48.221Z,64.70
2022-10-24T07:44:17.739Z,70.20
2022-10-24T07:46:45.993Z,63.50
2022-10-24T07:49:14.172Z,52.70
2022-10-24T07:51:43.483Z,53.30
2022-10-24T07:54:12.821Z,48.30
2022-10-24T07:56:42.820Z,58.70
2022-10-24T07:59:29.865Z,45.40
2022-10-24T08:02:00.283Z,56.10
2022-10-24T08:04:30.474Z,47.90
2022-10-24T08:06:59.356Z,38.00
2022-10-24T08:09:27.562Z,37.30
2022-10-24T08:11:55.817Z,38.50
2022-10-24T08:14:27.968Z,35.10
2022-10-24T08:16:56.096Z,34.30
2022-10-24T08:21:59.662Z,28.90
2022-10-24T08:24:28.676Z,34.00
2022-10-24T08:26:56.800Z,34.10
2022-10-24T08:29:25.579Z,44.50
2022-10-24T08:31:56.721Z,42.20
2022-10-24T08:34:24.872Z,48.20
2022-10-24T08:36:56.074Z,48.90
2022-10-24T08:39:24.616Z,31.60
2022-10-24T08:42:04.089Z,30.20
2022-10-24T08:44:44.345Z,33.60
2022-10-24T08:50:29.541Z,24.60
2022-10-24T08:53:05.589Z,33.40
2022-10-24T08:55:54.165Z,36.00
2022-10-24T08:58:34.660Z,32.30
2022-10-24T09:01:08.560Z,24.70
2022-10-24T09:04:01.858Z,22.40
2022-10-24T09:06:33.015Z,22.10
2022-10-24T09:09:12.616Z,29.90
2022-10-24T09:11:51.111Z,27.80
2022-10-24T09:14:22.430Z,29.70
2022-10-24T09:16:55.345Z,27.20
2022-10-24T09:19:25.587Z,26.50
2022-10-24T09:21:56.882Z,30.80
2022-10-24T09:24:33.674Z,27.60
2022-10-24T09:27:07.654Z,23.10
2022-10-24T09:29:37.795Z,25.50
2022-10-24T09:32:15.481Z,24.00
2022-10-24T09:34:44.947Z,26.20
2022-10-24T09:37:39.188Z,22.40
2022-10-24T09:40:18.489Z,23.40
2022-10-24T09:43:15.268Z,27.20
2022-10-24T09:45:49.567Z,20.30
2022-10-24T09:48:30.396Z,19.30
2022-10-24T09:51:03.947Z,22.20
2022-10-24T09:57:41.297Z,24.80
2022-10-24T10:00:31.890Z,24.70
2022-10-24T10:03:23.985Z,24.80
2022-10-24T10:05:58.338Z,19.00
2022-10-24T10:08:33.543Z,17.70
2022-10-24T10:11:09.094Z,19.50
2022-10-24T10:13:49.695Z,19.50
2022-10-24T10:16:28.827Z,19.30
2022-10-24T10:19:14.962Z,18.50
2022-10-24T10:22:00.721Z,19.90
2022-10-24T10:27:53.403Z,15.80
2022-10-24T10:30:34.460Z,18.60
2022-10-24T10:36:16.619Z,14.80
2022-10-24T10:39:19.128Z,18.10
2022-10-24T10:41:58.227Z,13.80
2022-10-24T10:44:48.492Z,23.50
2022-10-24T10:47:35.343Z,18.00
2022-10-24T10:50:25.581Z,19.20
2022-10-24T10:53:00.528Z,14.80
2022-10-24T10:55:33.454Z,15.30
2022-10-24T10:58:26.959Z,16.30
2022-10-24T11:01:39.765Z,15.80
2022-10-24T11:04:31.691Z,21.90
2022-10-24T11:07:30.689Z,21.30
2022-10-24T11:10:20.662Z,19.80
2022-10-24T11:12:49.816Z,21.10
2022-10-24T11:15:24.518Z,49.10
2022-10-24T11:18:05.552Z,16.80
2022-10-24T11:20:42.810Z,35.30
2022-10-24T11:23:23.690Z,15.10
2022-10-24T11:25:58.963Z,15.40
2022-10-24T11:28:37.429Z,34.10
2022-10-24T11:31:23.859Z,19.50
2022-10-24T11:34:20.627Z,14.90
2022-10-24T11:37:07.576Z,22.00
2022-10-24T11:39:50.150Z,19.90
2022-10-24T11:42:52.595Z,19.70
2022-10-24T11:45:26.391Z,20.60
2022-10-24T11:48:04.128Z,16.00
2022-10-24T11:50:39.354Z,14.60
2022-10-24T11:53:14.050Z,19.10
2022-10-24T11:55:50.553Z,12.60
2022-10-24T11:58:21.308Z,17.00
2022-10-24T12:01:27.279Z,19.60
2022-10-24T12:04:18.609Z,10.90
2022-10-24T12:07:17.550Z,11.40
2022-10-24T12:10:07.376Z,11.90
2022-10-24T12:12:59.841Z,12.30
2022-10-24T12:15:52.714Z,12.40
2022-10-24T12:18:30.517Z,14.20
2022-10-24T12:21:08.731Z,12.60
2022-10-24T12:23:40.175Z,13.70
2022-10-24T12:26:31.826Z,13.90
2022-10-24T12:29:03.703Z,14.20
2022-10-24T12:31:34.812Z,11.10
2022-10-24T12:34:23.137Z,11.20
2022-10-24T12:37:14.761Z,13.20
2022-10-24T12:39:45.754Z,10.60
2022-10-24T12:42:37.776Z,14.00
2022-10-24T12:45:06.421Z,11.90
2022-10-24T12:48:03.093Z,12.50
2022-10-24T12:53:17.577Z,9.90
2022-10-24T12:55:52.869Z,9.60
2022-10-24T12:58:25.083Z,8.90
2022-10-24T13:00:59.150Z,8.60
2022-10-24T13:04:08.734Z,10.20
2022-10-24T13:07:01.861Z,12.30
2022-10-24T13:10:01.108Z,12.90
2022-10-24T13:16:12.577Z,8.20
2022-10-24T13:18:47.192Z,12.60
2022-10-24T13:21:33.669Z,12.80
2022-10-24T13:24:23.820Z,10.90
2022-10-24T13:26:55.990Z,14.60
2022-10-24T13:29:24.194Z,9.60
2022-10-24T13:31:55.209Z,9.00
2022-10-24T13:34:52.696Z,9.40
2022-10-24T13:37:27.343Z,8.20
2022-10-24T13:40:09.655Z,8.90
2022-10-24T13:42:57.098Z,11.00
2022-10-24T13:45:33.946Z,9.50
2022-10-24T13:48:10.506Z,12.60
2022-10-24T13:50:50.986Z,8.80
2022-10-24T13:53:29.769Z,12.40
2022-10-24T13:56:10.413Z,11.40
2022-10-24T13:58:44.222Z,11.80
2022-10-24T14:01:30.335Z,28.60
2022-10-24T14:04:00.961Z,8.00
2022-10-24T14:06:33.841Z,12.20
2022-10-24T14:09:10.301Z,12.20
2022-10-24T14:11:48.297Z,8.30
2022-10-24T14:14:48.594Z,11.30
2022-10-24T14:17:23.891Z,11.10
2022-10-24T14:20:01.038Z,13.60
2022-10-24T14:22:43.107Z,11.40
2022-10-24T14:25:27.891Z,11.00
2022-10-24T14:27:59.973Z,8.80
2022-10-24T14:30:34.469Z,7.80
2022-10-24T14:33:24.402Z,8.50
2022-10-24T14:35:57.786Z,9.40
2022-10-24T14:38:30.191Z,11.10
2022-10-24T14:41:08.762Z,9.80
2022-10-24T14:43:42.638Z,10.60
2022-10-24T14:46:13.977Z,13.80
2022-10-24T14:48:45.797Z,17.00
2022-10-24T14:51:24.184Z,13.80
2022-10-24T14:53:55.879Z,10.50
2022-10-24T14:56:35.037Z,13.20
2022-10-24T14:59:07.577Z,18.10
2022-10-24T15:01:36.446Z,13.50
2022-10-24T15:04:05.738Z,11.90
2022-10-24T15:06:43.190Z,11.40
2022-10-24T15:09:11.233Z,12.00
2022-10-24T15:11:42.201Z,14.60
2022-10-24T15:14:31.890Z,11.10
2022-10-24T15:17:24.799Z,15.10
2022-10-24T15:20:01.905Z,12.20
2022-10-24T15:22:34.419Z,14.90
2022-10-24T15:25:16.605Z,16.90
2022-10-24T15:27:45.925Z,14.10
2022-10-24T15:30:20.282Z,18.80
2022-10-24T15:32:52.102Z,18.80
2022-10-24T15:35:20.204Z,20.40
2022-10-24T15:38:14.437Z,24.60
2022-10-24T15:40:46.183Z,17.20
2022-10-24T15:43:17.342Z,15.30
2022-10-24T15:45:46.555Z,22.20
2022-10-24T15:48:14.823Z,19.50
2022-10-24T15:50:46.407Z,16.30
2022-10-24T15:53:19.179Z,19.80
2022-10-24T15:55:48.319Z,25.00
2022-10-24T15:58:18.490Z,25.40
2022-10-24T16:00:47.602Z,23.00
2022-10-24T16:03:21.496Z,23.30
2022-10-24T16:05:54.507Z,25.30
2022-10-24T16:08:24.760Z,23.60
2022-10-24T16:10:53.626Z,25.10
2022-10-24T16:13:23.014Z,22.80
2022-10-24T16:15:53.495Z,29.90
2022-10-24T16:18:23.478Z,30.00
2022-10-24T16:20:51.534Z,25.40
2022-10-24T16:23:20.365Z,28.40
2022-10-24T16:25:48.940Z,28.50
2022-10-24T16:28:22.807Z,29.50
2022-10-24T16:30:53.188Z,29.60
2022-10-24T16:33:22.622Z,27.20
2022-10-24T16:35:54.505Z,33.60
2022-10-24T16:38:22.731Z,35.10
2022-10-24T16:40:51.076Z,27.30
2022-10-24T16:43:20.413Z,28.50
2022-10-24T16:46:00.535Z,41.50
2022-10-24T16:48:30.769Z,35.00
2022-10-24T16:50:59.058Z,35.60
2022-10-24T16:53:27.406Z,27.40
2022-10-24T16:55:56.767Z,31.50
2022-10-24T16:58:25.027Z,37.30
2022-10-24T17:01:05.939Z,32.40
2022-10-24T17:03:34.569Z,27.30
2022-10-24T17:06:07.648Z,23.20
2022-10-24T17:08:36.035Z,31.40
2022-10-24T17:11:09.489Z,31.80
2022-10-24T17:13:44.845Z,24.20
2022-10-24T17:16:13.189Z,25.40
2022-10-24T17:18:45.735Z,24.20
2022-10-24T17:21:27.738Z,31.70
2022-10-24T17:23:56.184Z,23.30
2022-10-24T17:26:25.486Z,20.00
2022-10-24T17:28:54.771Z,20.50
2022-10-24T17:31:22.896Z,22.00
2022-10-24T17:33:51.193Z,21.10
2022-10-24T17:36:33.188Z,20.70
2022-10-24T17:39:18.271Z,18.60
2022-10-24T17:41:49.410Z,21.10
2022-10-24T17:44:19.704Z,24.20
2022-10-24T17:46:53.241Z,27.30
2022-10-24T17:49:23.934Z,29.00
2022-10-24T17:51:52.148Z,24.80
2022-10-24T17:54:20.545Z,27.40
2022-10-24T17:56:48.706Z,28.60
2022-10-24T17:59:19.994Z,28.90
2022-10-24T18:01:49.152Z,31.90
2022-10-24T18:04:17.471Z,31.40
2022-10-24T18:06:45.456Z,35.10
2022-10-24T18:09:13.378Z,34.20
2022-10-24T18:11:41.519Z,36.30
2022-10-24T18:14:10.010Z,30.80
2022-10-24T18:16:40.644Z,38.80
2022-10-24T18:19:10.726Z,37.60
2022-10-24T18:21:39.121Z,34.70
2022-10-24T18:24:08.091Z,45.50
2022-10-24T18:26:36.490Z,41.20
2022-10-24T18:29:04.882Z,39.40
2022-10-24T18:31:34.151Z,37.10
2022-10-24T18:34:07.508Z,42.80
2022-10-24T18:36:37.097Z,41.00
2022-10-24T18:39:06.148Z,37.70
2022-10-24T18:41:44.509Z,41.80
2022-10-24T18:44:18.507Z,42.70
2022-10-24T18:46:47.016Z,46.30
2022-10-24T18:49:16.718Z,40.40
2022-10-24T18:51:57.621Z,44.20
2022-10-24T18:54:25.821Z,35.60
2022-10-24T18:56:57.345Z,38.70
2022-10-24T18:59:25.557Z,37.00
2022-10-24T19:02:36.372Z,47.90
2022-10-24T19:05:28.009Z,45.80
2022-10-24T19:07:56.188Z,44.80
2022-10-24T19:10:27.539Z,42.60
2022-10-24T19:12:57.541Z,48.80
2022-10-24T19:15:27.786Z,41.90
2022-10-24T19:17:56.742Z,44.00
2022-10-24T19:20:28.595Z,42.60
2022-10-24T19:22:57.828Z,42.60
2022-10-24T19:25:26.723Z,44.40
2022-10-24T19:27:56.015Z,43.30
2022-10-24T19:30:24.389Z,50.50
2022-10-24T19:32:53.096Z,46.30
2022-10-24T19:35:21.111Z,41.70
2022-10-24T19:37:49.561Z,41.50
2022-10-24T19:40:17.827Z,43.70
2022-10-24T19:42:45.821Z,43.70
2022-10-24T19:45:14.029Z,45.30
2022-10-24T19:47:42.048Z,45.10
2022-10-24T19:50:12.501Z,39.60
2022-10-24T19:52:40.620Z,38.90
2022-10-24T19:55:08.799Z,42.70
2022-10-24T19:57:37.286Z,40.70
2022-10-24T20:00:08.147Z,40.50
2022-10-24T20:02:39.988Z,41.90
2022-10-24T20:05:08.580Z,41.50
2022-10-24T20:07:36.586Z,39.90
2022-10-24T20:10:06.395Z,41.70
2022-10-24T20:12:37.293Z,42.10
2022-10-24T20:15:05.879Z,45.20
2022-10-24T20:17:35.572Z,41.40
2022-10-24T20:20:05.289Z,36.90
2022-10-24T20:22:33.242Z,41.00
2022-10-24T20:25:01.803Z,41.50
2022-10-24T20:27:30.257Z,43.80
2022-10-24T20:29:58.662Z,41.20
2022-10-24T20:32:26.999Z,43.30
2022-10-24T20:34:57.033Z,43.00
2022-10-24T20:37:25.031Z,36.90
2022-10-24T20:39:52.938Z,40.70
2022-10-24T20:42:22.352Z,32.90
2022-10-24T20:44:50.364Z,34.50
2022-10-24T20:47:18.274Z,37.60
2022-10-24T20:49:46.236Z,33.40
2022-10-24T20:52:14.229Z,37.70
2022-10-24T20:54:42.257Z,38.50
2022-10-24T20:57:12.755Z,36.00
2022-10-24T20:59:40.783Z,43.90
2022-10-24T21:02:10.503Z,41.80
2022-10-24T21:04:39.407Z,50.00
2022-10-24T21:07:07.303Z,44.50
2022-10-24T21:09:35.365Z,42.30
2022-10-24T21:12:06.011Z,42.30
2022-10-24T21:14:34.610Z,46.40
2022-10-24T21:17:02.690Z,47.20
2022-10-24T21:19:30.718Z,39.80
2022-10-24T21:21:58.732Z,42.90
2022-10-24T21:24:26.700Z,42.90
2022-10-24T21:26:54.874Z,39.50
2022-10-24T21:29:38.323Z,41.20
2022-10-24T21:32:06.309Z,46.60
2022-10-24T21:34:35.020Z,41.60
2022-10-24T21:37:06.872Z,46.40
2022-10-24T21:39:34.783Z,42.10
2022-10-24T21:42:02.840Z,41.60
2022-10-24T21:44:30.825Z,40.40
2022-10-24T21:46:58.960Z,39.90
2022-10-24T21:49:27.016Z,42.00
2022-10-24T21:51:54.983Z,37.10
2022-10-24T21:54:25.591Z,42.50
2022-10-24T21:56:53.537Z,39.50
2022-10-24T21:59:22.496Z,42.70
2022-10-24T22:01:52.397Z,44.20
2022-10-24T22:04:20.841Z,44.60
2022-10-24T22:06:49.439Z,42.10
2022-10-24T22:09:20.988Z,44.10
2022-10-24T22:11:49.448Z,41.30
2022-10-24T22:14:18.474Z,42.20
2022-10-24T22:16:46.495Z,45.70
2022-10-24T22:19:15.044Z,42.30
2022-10-24T22:21:48.918Z,41.60
2022-10-24T22:24:20.601Z,44.30
2022-10-24T22:26:49.240Z,43.30
2022-10-24T22:29:20.177Z,42.20
2022-10-24T22:31:49.069Z,40.70
2022-10-24T22:34:20.724Z,44.10
2022-10-24T22:36:51.896Z,40.30
2022-10-24T22:39:22.828Z,43.10
2022-10-24T22:41:51.649Z,41.20
2022-10-24T22:44:21.556Z,40.00
2022-10-24T22:47:07.831Z,41.20
2022-10-24T22:49:40.706Z,39.10
2022-10-24T22:52:12.736Z,37.30
2022-10-24T22:54:42.139Z,39.70
2022-10-24T22:57:10.788Z,43.80
2022-10-24T22:59:38.998Z,43.70
2022-10-24T23:02:30.221Z,44.10
2022-10-24T23:05:09.691Z,43.20
2022-10-24T23:07:50.123Z,46.60
2022-10-24T23:10:20.993Z,42.30
2022-10-24T23:12:52.834Z,38.80
2022-10-24T23:15:22.800Z,39.60
2022-10-24T23:17:51.370Z,43.10
2022-10-24T23:20:49.343Z,44.20
2022-10-24T23:23:28.789Z,41.20
2022-10-24T23:26:34.885Z,42.80
2022-10-24T23:29:13.310Z,42.00
2022-10-24T23:31:42.010Z,41.30
2022-10-24T23:34:10.773Z,43.10
2022-10-24T23:36:44.243Z,44.80
2022-10-24T23:39:13.318Z,40.00
2022-10-24T23:41:42.535Z,35.60
2022-10-24T23:44:11.681Z,37.00
2022-10-24T23:46:47.931Z,33.80
2022-10-24T23:49:16.219Z,34.30
2022-10-24T23:52:29.041Z,33.20
2022-10-24T23:54:57.384Z,31.00
2022-10-24T23:57:25.660Z,34.30
2022-10-24T23:59:53.565Z,34.60
